Terminal Aerodrome Forecast
Issued by NWS Green Bay, WI

Home | Current Version | Previous Version | Graphics & Text | Print | Product List | Glossary On
Versions: 1 2 3 4 5 6 7 8 9 10 11 12 13 14 15 16 17 18 19 20 21
000
FTUS43 KGRB 181735
TAFGRB
TAF
KGRB 181735Z 1818/1918 21009G14KT P6SM SCT030
     FM190100 22006KT P6SM -TSRA SCT050 BKN080CB
      TEMPO 1901/1903 2SM TSRA BKN025 OVC035CB
     FM190400 28003KT P6SM SCT040 BKN070
     FM190800 35005KT P6SM BKN100
     FM191500 01006KT P6SM SCT040=

USA.gov is the U.S. government's official web portal to all federal, state and local government web resources and services.